sensor_id;sensor_type;location;lat;lon;timestamp;temperature;humidity
31639;DHT22;18248;51.522;7.020;2024-01-27T00:02:30;5.20;99.90
31639;DHT22;18248;51.522;7.020;2024-01-27T00:05:28;5.20;99.90
31639;DHT22;18248;51.522;7.020;2024-01-27T00:08:27;5.20;99.90
31639;DHT22;18248;51.522;7.020;2024-01-27T00:11:25;5.20;99.90
31639;DHT22;18248;51.522;7.020;2024-01-27T00:14:24;5.20;99.90
31639;DHT22;18248;51.522;7.020;2024-01-27T00:17:22;5.10;99.90
31639;DHT22;18248;51.522;7.020;2024-01-27T00:20:23;5.20;99.90
31639;DHT22;18248;51.522;7.020;2024-01-27T00:23:21;5.10;99.90
31639;DHT22;18248;51.522;7.020;2024-01-27T00:26:20;5.10;99.90
31639;DHT22;18248;51.522;7.020;2024-01-27T00:29:18;5.10;99.90
31639;DHT22;18248;51.522;7.020;2024-01-27T00:32:17;5.10;99.90
31639;DHT22;18248;51.522;7.020;2024-01-27T00:35:15;5.10;99.90
31639;DHT22;18248;51.522;7.020;2024-01-27T00:38:14;5.00;99.90
31639;DHT22;18248;51.522;7.020;2024-01-27T00:41:17;5.00;99.90
31639;DHT22;18248;51.522;7.020;2024-01-27T00:44:15;5.00;99.90
31639;DHT22;18248;51.522;7.020;2024-01-27T00:47:15;5.00;99.90
31639;DHT22;18248;51.522;7.020;2024-01-27T00:50:13;5.00;99.90
31639;DHT22;18248;51.522;7.020;2024-01-27T00:53:12;5.00;99.90
31639;DHT22;18248;51.522;7.020;2024-01-27T00:56:11;5.00;99.90
31639;DHT22;18248;51.522;7.020;2024-01-27T00:59:09;4.90;99.90
31639;DHT22;18248;51.522;7.020;2024-01-27T01:02:08;4.90;99.90
31639;DHT22;18248;51.522;7.020;2024-01-27T01:05:06;4.90;99.90
31639;DHT22;18248;51.522;7.020;2024-01-27T01:08:06;4.90;99.90
31639;DHT22;18248;51.522;7.020;2024-01-27T01:11:04;4.90;99.90
31639;DHT22;18248;51.522;7.020;2024-01-27T01:14:03;4.90;99.90
31639;DHT22;18248;51.522;7.020;2024-01-27T01:17:01;4.90;99.90
31639;DHT22;18248;51.522;7.020;2024-01-27T01:20:00;4.90;99.90
31639;DHT22;18248;51.522;7.020;2024-01-27T01:22:59;4.80;99.90
31639;DHT22;18248;51.522;7.020;2024-01-27T01:25:57;4.80;99.90
31639;DHT22;18248;51.522;7.020;2024-01-27T01:28:56;4.80;99.90
31639;DHT22;18248;51.522;7.020;2024-01-27T01:31:54;4.80;99.90
31639;DHT22;18248;51.522;7.020;2024-01-27T01:34:53;4.80;99.90
31639;DHT22;18248;51.522;7.020;2024-01-27T01:37:51;4.70;99.90
31639;DHT22;18248;51.522;7.020;2024-01-27T01:40:50;4.70;99.90
31639;DHT22;18248;51.522;7.020;2024-01-27T01:43:48;4.60;99.90
31639;DHT22;18248;51.522;7.020;2024-01-27T01:46:47;4.60;99.90
31639;DHT22;18248;51.522;7.020;2024-01-27T01:49:46;4.60;99.90
31639;DHT22;18248;51.522;7.020;2024-01-27T01:52:44;4.50;99.90
31639;DHT22;18248;51.522;7.020;2024-01-27T01:55:44;4.50;99.90
31639;DHT22;18248;51.522;7.020;2024-01-27T01:58:44;4.40;99.90
31639;DHT22;18248;51.522;7.020;2024-01-27T02:01:43;4.40;99.90
31639;DHT22;18248;51.522;7.020;2024-01-27T02:04:42;4.40;99.90
31639;DHT22;18248;51.522;7.020;2024-01-27T02:07:41;4.30;99.90
31639;DHT22;18248;51.522;7.020;2024-01-27T02:10:40;4.30;99.90
31639;DHT22;18248;51.522;7.020;2024-01-27T02:13:38;4.20;99.90
31639;DHT22;18248;51.522;7.020;2024-01-27T02:16:37;4.20;99.90
31639;DHT22;18248;51.522;7.020;2024-01-27T02:19:36;4.20;99.90
31639;DHT22;18248;51.522;7.020;2024-01-27T02:22:34;4.20;99.90
31639;DHT22;18248;51.522;7.020;2024-01-27T02:25:34;4.20;99.90
31639;DHT22;18248;51.522;7.020;2024-01-27T02:28:33;4.10;99.90
31639;DHT22;18248;51.522;7.020;2024-01-27T02:31:33;4.10;99.90
31639;DHT22;18248;51.522;7.020;2024-01-27T02:34:32;4.10;99.90
31639;DHT22;18248;51.522;7.020;2024-01-27T02:37:30;4.10;99.90
31639;DHT22;18248;51.522;7.020;2024-01-27T02:40:29;4.00;99.90
31639;DHT22;18248;51.522;7.020;2024-01-27T02:43:27;4.10;99.90
31639;DHT22;18248;51.522;7.020;2024-01-27T02:46:26;4.00;99.90
31639;DHT22;18248;51.522;7.020;2024-01-27T02:49:24;4.00;99.90
31639;DHT22;18248;51.522;7.020;2024-01-27T02:52:23;4.00;99.90
31639;DHT22;18248;51.522;7.020;2024-01-27T02:55:21;3.90;99.90
31639;DHT22;18248;51.522;7.020;2024-01-27T02:58:20;4.00;99.90
31639;DHT22;18248;51.522;7.020;2024-01-27T03:01:18;3.90;99.90
31639;DHT22;18248;51.522;7.020;2024-01-27T03:04:17;3.90;99.90
31639;DHT22;18248;51.522;7.020;2024-01-27T03:07:15;3.90;99.90
31639;DHT22;18248;51.522;7.020;2024-01-27T03:10:14;3.90;99.90
31639;DHT22;18248;51.522;7.020;2024-01-27T03:13:12;3.90;99.90
31639;DHT22;18248;51.522;7.020;2024-01-27T03:16:11;3.90;99.90
31639;DHT22;18248;51.522;7.020;2024-01-27T03:19:10;3.80;99.90
31639;DHT22;18248;51.522;7.020;2024-01-27T03:22:08;3.80;99.90
31639;DHT22;18248;51.522;7.020;2024-01-27T03:25:09;3.80;99.90
31639;DHT22;18248;51.522;7.020;2024-01-27T03:28:08;3.80;99.90
31639;DHT22;18248;51.522;7.020;2024-01-27T03:31:06;3.80;99.90
31639;DHT22;18248;51.522;7.020;2024-01-27T03:34:05;3.70;99.90
31639;DHT22;18248;51.522;7.020;2024-01-27T03:37:04;3.70;99.90
31639;DHT22;18248;51.522;7.020;2024-01-27T03:40:02;3.70;99.90
31639;DHT22;18248;51.522;7.020;2024-01-27T03:43:01;3.60;99.90
31639;DHT22;18248;51.522;7.020;2024-01-27T03:46:00;3.60;99.90
31639;DHT22;18248;51.522;7.020;2024-01-27T03:48:58;3.60;99.90
31639;DHT22;18248;51.522;7.020;2024-01-27T03:51:57;3.60;99.90
31639;DHT22;18248;51.522;7.020;2024-01-27T03:54:55;3.60;99.90
31639;DHT22;18248;51.522;7.020;2024-01-27T03:57:54;3.60;99.90
31639;DHT22;18248;51.522;7.020;2024-01-27T04:00:52;3.60;99.90
31639;DHT22;18248;51.522;7.020;2024-01-27T04:03:51;3.50;99.90
31639;DHT22;18248;51.522;7.020;2024-01-27T04:06:49;3.50;99.90
31639;DHT22;18248;51.522;7.020;2024-01-27T04:09:48;3.50;99.90
31639;DHT22;18248;51.522;7.020;2024-01-27T04:12:46;3.50;99.90
31639;DHT22;18248;51.522;7.020;2024-01-27T04:15:45;3.50;99.90
31639;DHT22;18248;51.522;7.020;2024-01-27T04:18:43;3.50;99.90
31639;DHT22;18248;51.522;7.020;2024-01-27T04:21:42;3.50;99.90
31639;DHT22;18248;51.522;7.020;2024-01-27T04:24:41;3.50;99.90
31639;DHT22;18248;51.522;7.020;2024-01-27T04:27:41;3.50;99.90
31639;DHT22;18248;51.522;7.020;2024-01-27T04:30:40;3.50;99.90
31639;DHT22;18248;51.522;7.020;2024-01-27T04:33:39;3.40;99.90
31639;DHT22;18248;51.522;7.020;2024-01-27T04:36:37;3.40;99.90
31639;DHT22;18248;51.522;7.020;2024-01-27T04:39:37;3.40;99.90
31639;DHT22;18248;51.522;7.020;2024-01-27T04:42:38;3.40;99.90
31639;DHT22;18248;51.522;7.020;2024-01-27T04:45:36;3.40;99.90
31639;DHT22;18248;51.522;7.020;2024-01-27T04:48:35;3.40;99.90
31639;DHT22;18248;51.522;7.020;2024-01-27T04:51:33;3.40;99.90
31639;DHT22;18248;51.522;7.020;2024-01-27T04:54:32;3.40;99.90
31639;DHT22;18248;51.522;7.020;2024-01-27T04:57:30;3.40;99.90
31639;DHT22;18248;51.522;7.020;2024-01-27T05:00:30;3.40;99.90
31639;DHT22;18248;51.522;7.020;2024-01-27T05:03:28;3.40;99.90
31639;DHT22;18248;51.522;7.020;2024-01-27T05:06:27;3.40;99.90
31639;DHT22;18248;51.522;7.020;2024-01-27T05:09:25;3.40;99.90
31639;DHT22;18248;51.522;7.020;2024-01-27T05:12:24;3.40;99.90
31639;DHT22;18248;51.522;7.020;2024-01-27T05:15:23;3.30;99.90
31639;DHT22;18248;51.522;7.020;2024-01-27T05:18:21;3.30;99.90
31639;DHT22;18248;51.522;7.020;2024-01-27T05:21:20;3.30;99.90
31639;DHT22;18248;51.522;7.020;2024-01-27T05:24:18;3.30;99.90
31639;DHT22;18248;51.522;7.020;2024-01-27T05:27:17;3.30;99.90
31639;DHT22;18248;51.522;7.020;2024-01-27T05:30:16;3.30;99.90
31639;DHT22;18248;51.522;7.020;2024-01-27T05:33:15;3.30;99.90
31639;DHT22;18248;51.522;7.020;2024-01-27T05:36:14;3.30;99.90
31639;DHT22;18248;51.522;7.020;2024-01-27T05:39:13;3.20;99.90
31639;DHT22;18248;51.522;7.020;2024-01-27T05:42:12;3.20;99.90
31639;DHT22;18248;51.522;7.020;2024-01-27T05:45:11;3.20;99.90
31639;DHT22;18248;51.522;7.020;2024-01-27T05:48:09;3.20;99.90
31639;DHT22;18248;51.522;7.020;2024-01-27T05:51:08;3.20;99.90
31639;DHT22;18248;51.522;7.020;2024-01-27T05:54:06;3.20;99.90
31639;DHT22;18248;51.522;7.020;2024-01-27T05:57:06;3.20;99.90
31639;DHT22;18248;51.522;7.020;2024-01-27T06:00:05;3.20;99.90
31639;DHT22;18248;51.522;7.020;2024-01-27T06:03:04;3.20;99.90
31639;DHT22;18248;51.522;7.020;2024-01-27T06:06:03;3.20;99.90
31639;DHT22;18248;51.522;7.020;2024-01-27T06:09:02;3.20;99.90
31639;DHT22;18248;51.522;7.020;2024-01-27T06:12:02;3.20;99.90
31639;DHT22;18248;51.522;7.020;2024-01-27T06:15:00;3.20;99.90
31639;DHT22;18248;51.522;7.020;2024-01-27T06:17:59;3.20;99.90
31639;DHT22;18248;51.522;7.020;2024-01-27T06:20:57;3.20;99.90
31639;DHT22;18248;51.522;7.020;2024-01-27T06:23:56;3.20;99.90
31639;DHT22;18248;51.522;7.020;2024-01-27T06:26:54;3.20;99.90
31639;DHT22;18248;51.522;7.020;2024-01-27T06:29:53;3.20;99.90
31639;DHT22;18248;51.522;7.020;2024-01-27T06:32:51;3.20;99.90
31639;DHT22;18248;51.522;7.020;2024-01-27T06:35:50;3.20;99.90
31639;DHT22;18248;51.522;7.020;2024-01-27T06:38:48;3.20;99.90
31639;DHT22;18248;51.522;7.020;2024-01-27T06:41:47;3.20;99.90
31639;DHT22;18248;51.522;7.020;2024-01-27T06:44:46;3.20;99.90
31639;DHT22;18248;51.522;7.020;2024-01-27T06:47:44;3.20;99.90
31639;DHT22;18248;51.522;7.020;2024-01-27T06:50:43;3.20;99.90
31639;DHT22;18248;51.522;7.020;2024-01-27T06:53:41;3.20;99.90
31639;DHT22;18248;51.522;7.020;2024-01-27T06:56:40;3.20;99.90
31639;DHT22;18248;51.522;7.020;2024-01-27T06:59:38;3.20;99.90
31639;DHT22;18248;51.522;7.020;2024-01-27T07:02:37;3.20;99.90
31639;DHT22;18248;51.522;7.020;2024-01-27T07:05:35;3.20;99.90
31639;DHT22;18248;51.522;7.020;2024-01-27T07:08:37;3.20;99.90
31639;DHT22;18248;51.522;7.020;2024-01-27T07:11:36;3.20;99.90
31639;DHT22;18248;51.522;7.020;2024-01-27T07:14:35;3.30;99.90
31639;DHT22;18248;51.522;7.020;2024-01-27T07:17:34;3.20;99.90
31639;DHT22;18248;51.522;7.020;2024-01-27T07:20:32;3.20;99.90
31639;DHT22;18248;51.522;7.020;2024-01-27T07:23:31;3.20;99.90
31639;DHT22;18248;51.522;7.020;2024-01-27T07:26:29;3.20;99.90
31639;DHT22;18248;51.522;7.020;2024-01-27T07:29:28;3.30;99.90
31639;DHT22;18248;51.522;7.020;2024-01-27T07:32:26;3.20;99.90
31639;DHT22;18248;51.522;7.020;2024-01-27T07:35:25;3.20;99.90
31639;DHT22;18248;51.522;7.020;2024-01-27T07:38:23;3.20;99.90
31639;DHT22;18248;51.522;7.020;2024-01-27T07:41:22;3.20;99.90
31639;DHT22;18248;51.522;7.020;2024-01-27T07:44:20;3.20;99.90
31639;DHT22;18248;51.522;7.020;2024-01-27T07:47:19;3.20;99.90
31639;DHT22;18248;51.522;7.020;2024-01-27T07:50:17;3.30;99.90
31639;DHT22;18248;51.522;7.020;2024-01-27T07:53:16;3.30;99.90
31639;DHT22;18248;51.522;7.020;2024-01-27T07:56:15;3.20;99.90
31639;DHT22;18248;51.522;7.020;2024-01-27T07:59:13;3.30;99.90
31639;DHT22;18248;51.522;7.020;2024-01-27T08:02:12;3.30;99.90
31639;DHT22;18248;51.522;7.020;2024-01-27T08:05:11;3.30;99.90
31639;DHT22;18248;51.522;7.020;2024-01-27T08:08:09;3.30;99.90
31639;DHT22;18248;51.522;7.020;2024-01-27T08:11:08;3.30;99.90
31639;DHT22;18248;51.522;7.020;2024-01-27T08:14:06;3.30;99.90
31639;DHT22;18248;51.522;7.020;2024-01-27T08:17:05;3.40;99.90
31639;DHT22;18248;51.522;7.020;2024-01-27T08:20:04;3.40;99.90
31639;DHT22;18248;51.522;7.020;2024-01-27T08:23:03;3.40;99.90
31639;DHT22;18248;51.522;7.020;2024-01-27T08:26:01;3.40;99.90
31639;DHT22;18248;51.522;7.020;2024-01-27T08:29:00;3.50;99.90
31639;DHT22;18248;51.522;7.020;2024-01-27T08:31:58;3.50;99.90
31639;DHT22;18248;51.522;7.020;2024-01-27T08:34:57;3.50;99.90
31639;DHT22;18248;51.522;7.020;2024-01-27T08:37:56;3.60;99.90
31639;DHT22;18248;51.522;7.020;2024-01-27T08:40:54;3.60;99.90
31639;DHT22;18248;51.522;7.020;2024-01-27T08:43:53;3.60;99.90
31639;DHT22;18248;51.522;7.020;2024-01-27T08:46:51;3.70;99.90
31639;DHT22;18248;51.522;7.020;2024-01-27T08:49:50;3.80;99.90
31639;DHT22;18248;51.522;7.020;2024-01-27T08:52:48;3.80;99.90
31639;DHT22;18248;51.522;7.020;2024-01-27T08:55:47;3.90;99.90
31639;DHT22;18248;51.522;7.020;2024-01-27T08:58:46;3.90;99.90
31639;DHT22;18248;51.522;7.020;2024-01-27T09:01:46;4.00;99.90
31639;DHT22;18248;51.522;7.020;2024-01-27T09:04:44;4.10;99.90
31639;DHT22;18248;51.522;7.020;2024-01-27T09:07:43;4.10;99.90
31639;DHT22;18248;51.522;7.020;2024-01-27T09:10:41;4.20;99.90
31639;DHT22;18248;51.522;7.020;2024-01-27T09:13:40;4.20;99.90
31639;DHT22;18248;51.522;7.020;2024-01-27T09:16:38;4.30;99.90
31639;DHT22;18248;51.522;7.020;2024-01-27T09:19:38;4.40;99.90
31639;DHT22;18248;51.522;7.020;2024-01-27T09:22:37;4.50;99.90
31639;DHT22;18248;51.522;7.020;2024-01-27T09:25:36;4.60;99.90
31639;DHT22;18248;51.522;7.020;2024-01-27T09:28:34;4.60;99.90
31639;DHT22;18248;51.522;7.020;2024-01-27T09:31:33;4.70;99.90
31639;DHT22;18248;51.522;7.020;2024-01-27T09:34:31;4.70;99.90
31639;DHT22;18248;51.522;7.020;2024-01-27T09:37:30;4.80;99.90
31639;DHT22;18248;51.522;7.020;2024-01-27T09:40:30;4.90;99.90
31639;DHT22;18248;51.522;7.020;2024-01-27T09:43:29;4.90;99.90
31639;DHT22;18248;51.522;7.020;2024-01-27T09:46:30;5.00;99.90
31639;DHT22;18248;51.522;7.020;2024-01-27T09:49:29;5.10;99.90
31639;DHT22;18248;51.522;7.020;2024-01-27T09:52:29;5.20;99.90
31639;DHT22;18248;51.522;7.020;2024-01-27T09:55:27;5.40;99.90
31639;DHT22;18248;51.522;7.020;2024-01-27T09:58:26;5.50;99.90
31639;DHT22;18248;51.522;7.020;2024-01-27T10:01:26;5.60;99.90
31639;DHT22;18248;51.522;7.020;2024-01-27T10:04:27;5.70;99.90
31639;DHT22;18248;51.522;7.020;2024-01-27T10:07:27;5.80;99.90
31639;DHT22;18248;51.522;7.020;2024-01-27T10:10:26;5.90;99.90
31639;DHT22;18248;51.522;7.020;2024-01-27T10:13:24;6.10;99.90
31639;DHT22;18248;51.522;7.020;2024-01-27T10:16:27;6.20;99.90
31639;DHT22;18248;51.522;7.020;2024-01-27T10:19:26;6.40;99.90
31639;DHT22;18248;51.522;7.020;2024-01-27T10:22:26;6.50;99.90
31639;DHT22;18248;51.522;7.020;2024-01-27T10:25:25;6.60;99.90
31639;DHT22;18248;51.522;7.020;2024-01-27T10:28:23;6.80;99.90
31639;DHT22;18248;51.522;7.020;2024-01-27T10:31:29;6.90;99.90
31639;DHT22;18248;51.522;7.020;2024-01-27T10:34:28;7.00;99.90
31639;DHT22;18248;51.522;7.020;2024-01-27T10:37:26;7.10;99.90
31639;DHT22;18248;51.522;7.020;2024-01-27T10:40:25;7.20;99.90
31639;DHT22;18248;51.522;7.020;2024-01-27T10:43:25;7.20;99.90
31639;DHT22;18248;51.522;7.020;2024-01-27T10:46:25;7.30;99.90
31639;DHT22;18248;51.522;7.020;2024-01-27T10:49:24;7.40;99.90
31639;DHT22;18248;51.522;7.020;2024-01-27T10:52:27;7.60;99.90
31639;DHT22;18248;51.522;7.020;2024-01-27T10:55:27;7.70;99.90
31639;DHT22;18248;51.522;7.020;2024-01-27T10:58:26;7.80;99.90
31639;DHT22;18248;51.522;7.020;2024-01-27T11:01:26;8.00;99.90
31639;DHT22;18248;51.522;7.020;2024-01-27T11:04:28;8.10;99.90
31639;DHT22;18248;51.522;7.020;2024-01-27T11:07:27;8.20;99.90
31639;DHT22;18248;51.522;7.020;2024-01-27T11:10:27;8.30;99.90
31639;DHT22;18248;51.522;7.020;2024-01-27T11:13:30;8.40;99.90
31639;DHT22;18248;51.522;7.020;2024-01-27T11:16:30;8.60;99.90
31639;DHT22;18248;51.522;7.020;2024-01-27T11:19:28;8.80;99.90
31639;DHT22;18248;51.522;7.020;2024-01-27T11:22:28;9.10;99.90
31639;DHT22;18248;51.522;7.020;2024-01-27T11:25:26;9.40;99.90
31639;DHT22;18248;51.522;7.020;2024-01-27T11:28:25;9.50;99.90
31639;DHT22;18248;51.522;7.020;2024-01-27T11:31:27;9.50;99.90
31639;DHT22;18248;51.522;7.020;2024-01-27T11:34:26;9.50;99.90
31639;DHT22;18248;51.522;7.020;2024-01-27T11:37:30;9.50;99.90
31639;DHT22;18248;51.522;7.020;2024-01-27T11:40:29;9.50;99.90
31639;DHT22;18248;51.522;7.020;2024-01-27T11:43:28;9.50;99.90
31639;DHT22;18248;51.522;7.020;2024-01-27T11:46:27;9.60;99.90
31639;DHT22;18248;51.522;7.020;2024-01-27T11:49:26;9.60;99.90
31639;DHT22;18248;51.522;7.020;2024-01-27T11:52:27;9.60;99.90
31639;DHT22;18248;51.522;7.020;2024-01-27T11:55:25;9.70;99.90
31639;DHT22;18248;51.522;7.020;2024-01-27T11:58:24;9.80;99.90
31639;DHT22;18248;51.522;7.020;2024-01-27T12:01:23;9.90;99.90
31639;DHT22;18248;51.522;7.020;2024-01-27T12:04:22;10.00;99.90
31639;DHT22;18248;51.522;7.020;2024-01-27T12:07:20;10.00;99.90
31639;DHT22;18248;51.522;7.020;2024-01-27T12:10:19;10.00;99.90
31639;DHT22;18248;51.522;7.020;2024-01-27T12:13:18;10.10;99.90
31639;DHT22;18248;51.522;7.020;2024-01-27T12:16:17;10.10;99.90
31639;DHT22;18248;51.522;7.020;2024-01-27T12:19:16;10.10;99.90
31639;DHT22;18248;51.522;7.020;2024-01-27T12:25:26;10.20;99.90
31639;DHT22;18248;51.522;7.020;2024-01-27T12:28:25;10.30;99.90
31639;DHT22;18248;51.522;7.020;2024-01-27T12:31:24;10.30;99.90
31639;DHT22;18248;51.522;7.020;2024-01-27T12:34:23;10.30;99.90
31639;DHT22;18248;51.522;7.020;2024-01-27T12:37:22;10.30;99.90
31639;DHT22;18248;51.522;7.020;2024-01-27T12:40:21;10.40;99.90
31639;DHT22;18248;51.522;7.020;2024-01-27T12:43:20;10.50;99.90
31639;DHT22;18248;51.522;7.020;2024-01-27T12:46:18;10.50;99.90
31639;DHT22;18248;51.522;7.020;2024-01-27T12:49:17;10.60;99.90
31639;DHT22;18248;51.522;7.020;2024-01-27T12:52:15;10.60;99.90
31639;DHT22;18248;51.522;7.020;2024-01-27T12:55:14;10.60;99.90
31639;DHT22;18248;51.522;7.020;2024-01-27T12:58:12;10.60;99.90
31639;DHT22;18248;51.522;7.020;2024-01-27T13:01:11;10.60;99.90
31639;DHT22;18248;51.522;7.020;2024-01-27T13:04:10;10.70;99.90
31639;DHT22;18248;51.522;7.020;2024-01-27T13:07:08;10.70;99.90
31639;DHT22;18248;51.522;7.020;2024-01-27T13:10:07;10.80;99.90
31639;DHT22;18248;51.522;7.020;2024-01-27T13:13:05;10.80;99.90
31639;DHT22;18248;51.522;7.020;2024-01-27T13:16:04;10.80;99.90
31639;DHT22;18248;51.522;7.020;2024-01-27T13:19:03;10.80;99.90
31639;DHT22;18248;51.522;7.020;2024-01-27T13:22:01;10.80;99.90
31639;DHT22;18248;51.522;7.020;2024-01-27T13:25:00;10.90;99.90
31639;DHT22;18248;51.522;7.020;2024-01-27T13:28:00;10.90;99.90
31639;DHT22;18248;51.522;7.020;2024-01-27T13:30:58;11.00;99.90
31639;DHT22;18248;51.522;7.020;2024-01-27T13:33:57;11.10;99.90
31639;DHT22;18248;51.522;7.020;2024-01-27T13:36:56;11.10;99.90
31639;DHT22;18248;51.522;7.020;2024-01-27T13:39:55;11.10;99.90
31639;DHT22;18248;51.522;7.020;2024-01-27T13:42:55;11.10;99.90
31639;DHT22;18248;51.522;7.020;2024-01-27T13:45:54;11.10;99.90
31639;DHT22;18248;51.522;7.020;2024-01-27T13:48:53;11.10;99.90
31639;DHT22;18248;51.522;7.020;2024-01-27T13:51:51;11.10;99.90
31639;DHT22;18248;51.522;7.020;2024-01-27T13:54:50;11.10;99.90
31639;DHT22;18248;51.522;7.020;2024-01-27T13:57:49;11.20;99.90
31639;DHT22;18248;51.522;7.020;2024-01-27T14:00:48;11.10;99.90
31639;DHT22;18248;51.522;7.020;2024-01-27T14:03:47;11.10;99.90
31639;DHT22;18248;51.522;7.020;2024-01-27T14:06:45;11.00;99.90
31639;DHT22;18248;51.522;7.020;2024-01-27T14:09:44;11.00;99.90
31639;DHT22;18248;51.522;7.020;2024-01-27T14:12:43;11.00;99.90
31639;DHT22;18248;51.522;7.020;2024-01-27T14:15:41;11.00;99.90
31639;DHT22;18248;51.522;7.020;2024-01-27T14:18:40;10.80;99.90
31639;DHT22;18248;51.522;7.020;2024-01-27T14:21:40;10.80;99.90
31639;DHT22;18248;51.522;7.020;2024-01-27T14:24:38;10.80;99.90
31639;DHT22;18248;51.522;7.020;2024-01-27T14:27:37;10.70;99.90
31639;DHT22;18248;51.522;7.020;2024-01-27T14:30:36;10.70;99.90
31639;DHT22;18248;51.522;7.020;2024-01-27T14:33:34;10.60;99.90
31639;DHT22;18248;51.522;7.020;2024-01-27T14:36:33;10.50;99.90
31639;DHT22;18248;51.522;7.020;2024-01-27T14:39:31;10.40;99.90
31639;DHT22;18248;51.522;7.020;2024-01-27T14:42:30;10.40;99.90
31639;DHT22;18248;51.522;7.020;2024-01-27T14:45:29;10.30;99.90
31639;DHT22;18248;51.522;7.020;2024-01-27T14:48:28;10.30;99.90
31639;DHT22;18248;51.522;7.020;2024-01-27T14:51:26;10.30;99.90
31639;DHT22;18248;51.522;7.020;2024-01-27T14:54:25;10.30;99.90
31639;DHT22;18248;51.522;7.020;2024-01-27T14:57:24;10.30;99.90
31639;DHT22;18248;51.522;7.020;2024-01-27T15:00:22;10.30;99.90
31639;DHT22;18248;51.522;7.020;2024-01-27T15:03:22;10.20;99.90
31639;DHT22;18248;51.522;7.020;2024-01-27T15:06:21;10.20;99.90
31639;DHT22;18248;51.522;7.020;2024-01-27T15:09:23;10.10;99.90
31639;DHT22;18248;51.522;7.020;2024-01-27T15:12:22;10.00;99.90
31639;DHT22;18248;51.522;7.020;2024-01-27T15:15:22;10.00;99.90
31639;DHT22;18248;51.522;7.020;2024-01-27T15:18:21;9.90;99.90
31639;DHT22;18248;51.522;7.020;2024-01-27T15:21:20;9.90;99.90
31639;DHT22;18248;51.522;7.020;2024-01-27T15:24:18;9.80;99.90
31639;DHT22;18248;51.522;7.020;2024-01-27T15:27:17;9.80;99.90
31639;DHT22;18248;51.522;7.020;2024-01-27T15:30:16;9.70;99.90
31639;DHT22;18248;51.522;7.020;2024-01-27T15:33:15;9.60;99.90
31639;DHT22;18248;51.522;7.020;2024-01-27T15:36:13;9.60;99.90
31639;DHT22;18248;51.522;7.020;2024-01-27T15:39:12;9.50;99.90
31639;DHT22;18248;51.522;7.020;2024-01-27T15:42:11;9.50;99.90
31639;DHT22;18248;51.522;7.020;2024-01-27T15:45:10;9.40;99.90
31639;DHT22;18248;51.522;7.020;2024-01-27T15:48:08;9.30;99.90
31639;DHT22;18248;51.522;7.020;2024-01-27T15:51:10;9.30;99.90
31639;DHT22;18248;51.522;7.020;2024-01-27T15:54:08;9.20;99.90
31639;DHT22;18248;51.522;7.020;2024-01-27T15:57:07;9.10;99.90
31639;DHT22;18248;51.522;7.020;2024-01-27T16:00:06;9.10;99.90
31639;DHT22;18248;51.522;7.020;2024-01-27T16:03:08;9.00;99.90
31639;DHT22;18248;51.522;7.020;2024-01-27T16:06:07;8.90;99.90
31639;DHT22;18248;51.522;7.020;2024-01-27T16:09:06;8.80;99.90
31639;DHT22;18248;51.522;7.020;2024-01-27T16:12:08;8.70;99.90
31639;DHT22;18248;51.522;7.020;2024-01-27T16:15:07;8.60;99.90
31639;DHT22;18248;51.522;7.020;2024-01-27T16:18:06;8.50;99.90
31639;DHT22;18248;51.522;7.020;2024-01-27T16:21:05;8.40;99.90
31639;DHT22;18248;51.522;7.020;2024-01-27T16:24:03;8.30;99.90
31639;DHT22;18248;51.522;7.020;2024-01-27T16:27:02;8.30;99.90
31639;DHT22;18248;51.522;7.020;2024-01-27T16:30:01;8.20;99.90
31639;DHT22;18248;51.522;7.020;2024-01-27T16:33:00;8.10;99.90
31639;DHT22;18248;51.522;7.020;2024-01-27T16:35:59;8.00;99.90
31639;DHT22;18248;51.522;7.020;2024-01-27T16:38:58;8.00;99.90
31639;DHT22;18248;51.522;7.020;2024-01-27T16:41:56;7.90;99.90
31639;DHT22;18248;51.522;7.020;2024-01-27T16:44:55;7.80;99.90
31639;DHT22;18248;51.522;7.020;2024-01-27T16:47:53;7.70;99.90
31639;DHT22;18248;51.522;7.020;2024-01-27T16:50:52;7.60;99.90
31639;DHT22;18248;51.522;7.020;2024-01-27T16:53:50;7.50;99.90
31639;DHT22;18248;51.522;7.020;2024-01-27T16:56:49;7.30;99.90
31639;DHT22;18248;51.522;7.020;2024-01-27T16:59:48;7.30;99.90
31639;DHT22;18248;51.522;7.020;2024-01-27T17:02:46;7.10;99.90
31639;DHT22;18248;51.522;7.020;2024-01-27T17:05:45;6.90;99.90
31639;DHT22;18248;51.522;7.020;2024-01-27T17:08:45;6.80;99.90
31639;DHT22;18248;51.522;7.020;2024-01-27T17:11:44;6.70;99.90
31639;DHT22;18248;51.522;7.020;2024-01-27T17:14:42;6.60;99.90
31639;DHT22;18248;51.522;7.020;2024-01-27T17:17:41;6.50;99.90
31639;DHT22;18248;51.522;7.020;2024-01-27T17:20:40;6.40;99.90
31639;DHT22;18248;51.522;7.020;2024-01-27T17:23:38;6.40;99.90
31639;DHT22;18248;51.522;7.020;2024-01-27T17:26:37;6.30;99.90
31639;DHT22;18248;51.522;7.020;2024-01-27T17:29:35;6.20;99.90
31639;DHT22;18248;51.522;7.020;2024-01-27T17:32:35;6.10;99.90
31639;DHT22;18248;51.522;7.020;2024-01-27T17:35:34;6.20;99.90
31639;DHT22;18248;51.522;7.020;2024-01-27T17:38:34;6.10;99.90
31639;DHT22;18248;51.522;7.020;2024-01-27T17:41:33;6.00;99.90
31639;DHT22;18248;51.522;7.020;2024-01-27T17:44:31;6.00;99.90
31639;DHT22;18248;51.522;7.020;2024-01-27T17:47:30;5.90;99.90
31639;DHT22;18248;51.522;7.020;2024-01-27T17:50:29;5.80;99.90
31639;DHT22;18248;51.522;7.020;2024-01-27T17:53:27;5.70;99.90
31639;DHT22;18248;51.522;7.020;2024-01-27T17:56:26;5.70;99.90
31639;DHT22;18248;51.522;7.020;2024-01-27T17:59:24;5.60;99.90
31639;DHT22;18248;51.522;7.020;2024-01-27T18:02:23;5.50;99.90
31639;DHT22;18248;51.522;7.020;2024-01-27T18:05:24;5.40;99.90
31639;DHT22;18248;51.522;7.020;2024-01-27T18:08:22;5.40;99.90
31639;DHT22;18248;51.522;7.020;2024-01-27T18:11:21;5.40;99.90
31639;DHT22;18248;51.522;7.020;2024-01-27T18:14:19;5.40;99.90
31639;DHT22;18248;51.522;7.020;2024-01-27T18:17:18;5.20;99.90
31639;DHT22;18248;51.522;7.020;2024-01-27T18:20:16;5.20;99.90
31639;DHT22;18248;51.522;7.020;2024-01-27T18:23:15;5.10;99.90
31639;DHT22;18248;51.522;7.020;2024-01-27T18:26:13;5.10;99.90
31639;DHT22;18248;51.522;7.020;2024-01-27T18:29:12;5.00;99.90
31639;DHT22;18248;51.522;7.020;2024-01-27T18:32:11;5.00;99.90
31639;DHT22;18248;51.522;7.020;2024-01-27T18:35:09;5.00;99.90
31639;DHT22;18248;51.522;7.020;2024-01-27T18:38:08;4.90;99.90
31639;DHT22;18248;51.522;7.020;2024-01-27T18:41:06;4.90;99.90
31639;DHT22;18248;51.522;7.020;2024-01-27T18:44:05;4.90;99.90
31639;DHT22;18248;51.522;7.020;2024-01-27T18:47:04;4.80;99.90
31639;DHT22;18248;51.522;7.020;2024-01-27T18:50:03;4.80;99.90
31639;DHT22;18248;51.522;7.020;2024-01-27T18:53:05;4.80;99.90
31639;DHT22;18248;51.522;7.020;2024-01-27T18:56:04;4.70;99.90
31639;DHT22;18248;51.522;7.020;2024-01-27T18:59:03;4.70;99.90
31639;DHT22;18248;51.522;7.020;2024-01-27T19:02:02;4.60;99.90
31639;DHT22;18248;51.522;7.020;2024-01-27T19:05:00;4.60;99.90
31639;DHT22;18248;51.522;7.020;2024-01-27T19:08:03;4.50;99.90